Severinia, Brazil
Current Conditions -  °F | °C
As of 11:00 PM on Tuesday 21 Oct 2014 (Local Time) from SBSR Reporting Station
Clear Clear  
Wind Chill: 73°   Ceiling: Unl
Heat Index: 73°   Visibility: 6mi
Dew Point: 54°   Wind: 16mph
Humidity: 50%   Direction: 160°SSE
Pressure: 30.09"   Gusts: NA
Location:  20.81°S, 48.8°W
Report Text: SBSR 220100Z 16014KT CAVOK 23/12 Q1019
Loading
Personal Weather Stations






























Interactive Weather Map
Tropical Storm Tracking
New forecast layout! Learn more

10-Day Weather Forecast

Advertisements
Track Severe Weather on mobile